Time;durP1;ratioP1;P1;durP2;ratioP2;P2;SDS_P1;SDS_P2;PMS_P1;PMS_P2;Temp;Humidity;BMP_temperature;BMP_pressure;BME280_temperature;BME280_humidity;BME280_pressure;Samples;Min_cycle;Max_cycle;Signal;HPM_P1;HPM_P2
2022/04/08 00:01:17;;;;;;;1.67;1.07;;;11.50;99.90;;;;;;7404192;19;20127;-77
2022/04/08 00:03:44;;;;;;;7.03;0.80;;;11.50;99.90;;;;;;7392707;19;20614;-77
2022/04/08 00:06:10;;;;;;;1.80;0.80;;;11.50;99.90;;;;;;7392173;19;20142;-79
2022/04/08 00:08:36;;;;;;;3.03;0.60;;;11.60;99.90;;;;;;7390548;19;20146;-78
2022/04/08 00:11:02;;;;;;;3.27;0.90;;;11.70;99.90;;;;;;7392532;19;20123;-78
2022/04/08 00:13:28;;;;;;;1.37;0.63;;;11.80;99.90;;;;;;7392142;19;20629;-76
2022/04/08 00:15:54;;;;;;;2.23;0.70;;;11.70;99.90;;;;;;7391788;19;20142;-76
2022/04/08 00:18:20;;;;;;;1.90;0.60;;;11.70;99.90;;;;;;7394044;19;20194;-75
2022/04/08 00:20:47;;;;;;;2.07;0.70;;;11.60;99.90;;;;;;7398114;19;20130;-77
2022/04/08 00:23:12;;;;;;;3.17;1.30;;;11.60;99.90;;;;;;7392453;19;20162;-79
2022/04/08 00:25:39;;;;;;;2.07;0.80;;;11.60;99.90;;;;;;7391802;19;20127;-77
2022/04/08 00:28:04;;;;;;;3.43;0.70;;;11.70;99.90;;;;;;7390842;19;20158;-80
2022/04/08 00:30:30;;;;;;;2.73;0.80;;;11.70;99.90;;;;;;7393327;19;20126;-76
2022/04/08 00:32:57;;;;;;;5.13;0.93;;;11.40;99.90;;;;;;7391905;19;20186;-77
2022/04/08 00:35:23;;;;;;;3.00;0.83;;;11.50;99.90;;;;;;7394409;19;20142;-77
2022/04/08 00:37:50;;;;;;;5.53;0.80;;;11.40;99.90;;;;;;7402474;19;20130;-79
2022/04/08 00:40:18;;;;;;;4.03;0.97;;;11.60;99.90;;;;;;7391641;19;20194;-77
2022/04/08 00:42:44;;;;;;;2.40;0.70;;;11.60;99.90;;;;;;7394429;19;20142;-79
2022/04/08 00:45:10;;;;;;;4.17;0.80;;;11.50;99.90;;;;;;7390336;19;20622;-79
2022/04/08 00:47:40;;;;;;;5.27;1.20;;;11.40;99.90;;;;;;7393785;19;20600;-77
2022/04/08 00:50:19;;;;;;;2.43;0.87;;;11.50;99.90;;;;;;7397257;19;20578;-77
2022/04/08 00:52:46;;;;;;;1.20;0.70;;;11.50;99.90;;;;;;7393205;19;20154;-76
2022/04/08 00:55:13;;;;;;;1.63;0.70;;;11.60;99.90;;;;;;7390143;19;20141;-79
2022/04/08 00:57:39;;;;;;;1.60;0.67;;;11.50;99.90;;;;;;7389792;19;20131;-79
2022/04/08 01:00:08;;;;;;;1.23;0.50;;;11.60;99.90;;;;;;7390663;19;20160;-77
2022/04/08 01:02:34;;;;;;;3.33;0.83;;;11.70;99.90;;;;;;7399577;19;20146;-77
2022/04/08 01:05:00;;;;;;;2.23;0.80;;;11.70;99.90;;;;;;7396564;19;20617;-77
2022/04/08 01:07:27;;;;;;;1.97;0.70;;;11.60;99.90;;;;;;7389046;19;20126;-79
2022/04/08 01:09:52;;;;;;;3.23;1.00;;;11.60;99.90;;;;;;7389988;19;20142;-76
2022/04/08 01:12:19;;;;;;;2.50;0.90;;;11.70;99.90;;;;;;7394110;19;20830;-79
2022/04/08 01:14:45;;;;;;;1.83;0.90;;;11.40;99.90;;;;;;7392397;19;20149;-77
2022/04/08 01:17:11;;;;;;;2.47;0.80;;;11.40;99.90;;;;;;7389609;19;20130;-78
2022/04/08 01:19:36;;;;;;;2.87;0.83;;;11.40;99.90;;;;;;7394388;19;20133;-79
2022/04/08 01:22:03;;;;;;;3.40;0.90;;;11.50;99.90;;;;;;7394200;19;20138;-76
2022/04/08 01:24:34;;;;;;;7.40;1.13;;;11.60;99.90;;;;;;7391162;19;20142;-80
2022/04/08 01:27:02;;;;;;;1.23;0.60;;;11.40;99.90;;;;;;7411979;19;20156;-79
2022/04/08 01:29:28;;;;;;;3.20;0.90;;;11.40;99.90;;;;;;7393019;19;20135;-76
2022/04/08 01:31:54;;;;;;;1.23;0.60;;;11.20;99.90;;;;;;7389389;19;20146;-79
2022/04/08 01:34:20;;;;;;;1.33;0.70;;;11.10;99.90;;;;;;7389457;19;20131;-78
2022/04/08 01:36:46;;;;;;;1.10;0.50;;;11.30;99.90;;;;;;7390443;19;20194;-80
2022/04/08 01:39:15;;;;;;;0.73;0.50;;;11.30;99.90;;;;;;7388720;19;20181;-79
2022/04/08 01:41:44;;;;;;;2.97;1.00;;;11.20;99.90;;;;;;7390161;19;20138;-80
2022/04/08 01:44:10;;;;;;;1.67;0.53;;;11.30;99.90;;;;;;7389969;19;20146;-77
2022/04/08 01:46:35;;;;;;;2.77;0.90;;;11.30;99.90;;;;;;7388533;19;20157;-76
2022/04/08 01:49:01;;;;;;;4.37;0.70;;;11.20;99.90;;;;;;7395940;19;20138;-76
2022/04/08 01:51:27;;;;;;;2.57;0.60;;;11.00;99.90;;;;;;7391149;19;20134;-75
2022/04/08 01:53:53;;;;;;;2.03;0.93;;;11.20;99.90;;;;;;7389192;19;20131;-76
2022/04/08 01:56:20;;;;;;;4.10;0.90;;;11.10;99.90;;;;;;7391324;19;20148;-78
2022/04/08 01:58:46;;;;;;;3.70;0.67;;;11.40;99.90;;;;;;7387802;19;20138;-76
2022/04/08 02:01:12;;;;;;;1.47;0.60;;;11.10;99.90;;;;;;7387901;19;20196;-79
2022/04/08 02:03:38;;;;;;;2.27;0.80;;;11.20;99.90;;;;;;7391372;19;20143;-79
2022/04/08 02:06:04;;;;;;;1.23;0.67;;;11.20;99.90;;;;;;7389682;19;20123;-78
2022/04/08 02:08:29;;;;;;;4.80;0.73;;;11.30;99.90;;;;;;7393202;19;20155;-78
2022/04/08 02:10:55;;;;;;;2.90;0.90;;;11.30;99.90;;;;;;7387869;19;20165;-77
2022/04/08 02:13:21;;;;;;;4.90;0.87;;;11.30;99.90;;;;;;7388093;19;20586;-77
2022/04/08 02:15:47;;;;;;;4.53;0.90;;;11.40;99.90;;;;;;7388836;19;20603;-77
2022/04/08 02:18:14;;;;;;;4.23;1.00;;;11.10;99.90;;;;;;7386896;19;20130;-77
2022/04/08 02:20:41;;;;;;;1.60;0.63;;;10.90;99.90;;;;;;7392125;19;20149;-78
2022/04/08 02:23:07;;;;;;;2.93;0.70;;;11.10;99.90;;;;;;7387563;19;20645;-77
2022/04/08 02:25:33;;;;;;;3.07;0.80;;;11.00;99.90;;;;;;7387768;19;20173;-78
2022/04/08 02:27:59;;;;;;;2.13;0.80;;;11.20;99.90;;;;;;7391051;19;20143;-75
2022/04/08 02:30:25;;;;;;;2.53;0.80;;;11.20;99.90;;;;;;7393425;19;20145;-78
2022/04/08 02:32:51;;;;;;;3.63;1.07;;;11.10;99.90;;;;;;7387623;19;20586;-78
2022/04/08 02:35:17;;;;;;;1.23;0.60;;;11.20;99.90;;;;;;7388655;19;20144;-79
2022/04/08 02:37:43;;;;;;;3.30;0.83;;;11.10;99.90;;;;;;7386293;19;20134;-79
2022/04/08 02:40:10;;;;;;;2.23;0.83;;;11.20;99.90;;;;;;7385296;19;20150;-78
2022/04/08 02:42:35;;;;;;;1.80;0.73;;;11.20;99.90;;;;;;7387148;19;20617;-78
2022/04/08 02:45:01;;;;;;;1.40;0.90;;;11.20;99.90;;;;;;7386438;19;20154;-77
2022/04/08 02:47:27;;;;;;;3.80;0.80;;;11.20;99.90;;;;;;7389590;19;20154;-79
2022/04/08 02:49:52;;;;;;;2.13;0.60;;;11.20;99.90;;;;;;7393471;19;20548;-77
2022/04/08 02:52:18;;;;;;;4.40;0.70;;;11.20;99.90;;;;;;7386856;19;20198;-77
2022/04/08 02:54:44;;;;;;;7.30;1.63;;;10.90;99.90;;;;;;7391094;19;20130;-76
2022/04/08 02:57:10;;;;;;;3.80;0.67;;;11.20;99.90;;;;;;7387718;19;20666;-78
2022/04/08 02:59:36;;;;;;;3.73;0.90;;;11.20;99.90;;;;;;7390475;19;20147;-79
2022/04/08 03:02:01;;;;;;;3.27;0.93;;;11.30;99.90;;;;;;7391185;19;20590;-76
2022/04/08 03:04:27;;;;;;;2.63;0.70;;;11.20;99.90;;;;;;7394243;19;20650;-77
2022/04/08 03:06:54;;;;;;;2.90;0.87;;;11.30;99.90;;;;;;7394907;19;20246;-79
2022/04/08 03:09:21;;;;;;;2.50;0.70;;;11.30;99.90;;;;;;7400747;19;20130;-77
2022/04/08 03:11:47;;;;;;;1.63;0.70;;;11.30;99.90;;;;;;7396112;19;20568;-79
2022/04/08 03:14:13;;;;;;;3.57;0.73;;;11.40;99.90;;;;;;7397844;19;20182;-77
2022/04/08 03:16:42;;;;;;;2.73;0.70;;;11.40;99.90;;;;;;7392519;19;20123;-79
2022/04/08 03:19:08;;;;;;;1.80;0.90;;;11.30;99.90;;;;;;7395249;19;20150;-76
2022/04/08 03:21:34;;;;;;;3.27;0.90;;;11.30;99.90;;;;;;7392894;19;20135;-76
2022/04/08 03:23:59;;;;;;;1.83;0.80;;;11.20;99.90;;;;;;7393764;19;20138;-76
2022/04/08 03:26:25;;;;;;;5.77;1.13;;;11.10;99.90;;;;;;7405002;19;20142;-77
2022/04/08 03:28:51;;;;;;;2.60;1.00;;;11.10;99.90;;;;;;7395678;19;20550;-77
2022/04/08 03:31:17;;;;;;;2.57;0.60;;;11.00;99.90;;;;;;7396670;19;20146;-77
2022/04/08 03:33:43;;;;;;;0.93;0.60;;;11.20;99.90;;;;;;7395049;19;20146;-80
2022/04/08 03:36:08;;;;;;;2.50;0.60;;;10.90;99.90;;;;;;7391908;19;20444;-77
2022/04/08 03:38:34;;;;;;;3.33;0.80;;;10.60;99.90;;;;;;7392188;19;20766;-80
2022/04/08 03:41:01;;;;;;;3.60;0.80;;;10.60;99.90;;;;;;7393530;19;20150;-77
2022/04/08 03:43:30;;;;;;;2.00;0.70;;;11.00;99.90;;;;;;7394522;19;20508;-80
2022/04/08 03:45:56;;;;;;;1.93;0.97;;;10.80;99.90;;;;;;7394757;19;20134;-77
2022/04/08 03:48:22;;;;;;;2.57;0.80;;;11.00;99.90;;;;;;7398653;19;20127;-76
2022/04/08 03:50:47;;;;;;;3.80;0.90;;;10.80;99.90;;;;;;7392125;19;20122;-79
2022/04/08 03:53:13;;;;;;;1.33;0.70;;;10.80;99.90;;;;;;7393482;19;20214;-80
2022/04/08 03:55:40;;;;;;;2.87;0.70;;;10.90;99.90;;;;;;7395254;19;20139;-76
2022/04/08 03:58:07;;;;;;;1.70;0.67;;;10.70;99.90;;;;;;7391142;19;20849;-76
2022/04/08 04:00:33;;;;;;;2.80;0.80;;;10.60;99.90;;;;;;7391853;19;20203;-76
2022/04/08 04:02:59;;;;;;;2.90;0.83;;;10.50;99.90;;;;;;7394060;19;20134;-77
2022/04/08 04:05:25;;;;;;;3.43;0.70;;;10.50;99.90;;;;;;7395343;19;20139;-79
2022/04/08 04:07:50;;;;;;;2.73;0.73;;;10.80;99.90;;;;;;7389565;19;20480;-76
2022/04/08 04:10:16;;;;;;;2.30;0.53;;;10.50;99.90;;;;;;7397635;19;20143;-79
2022/04/08 04:12:42;;;;;;;2.57;0.63;;;10.60;99.90;;;;;;7393500;19;20126;-76
2022/04/08 04:15:09;;;;;;;1.87;0.83;;;10.60;99.90;;;;;;7390298;19;20587;-79
2022/04/08 04:17:36;;;;;;;0.80;0.60;;;10.70;99.90;;;;;;7390536;19;20863;-78
2022/04/08 04:20:04;;;;;;;3.50;0.87;;;11.10;99.90;;;;;;7391283;19;20126;-78
2022/04/08 04:22:30;;;;;;;4.07;0.70;;;10.80;99.90;;;;;;7392161;19;20198;-77
2022/04/08 04:24:56;;;;;;;1.57;0.53;;;10.50;99.90;;;;;;7390144;19;20836;-77
2022/04/08 04:27:22;;;;;;;2.70;0.80;;;10.70;99.90;;;;;;7389936;19;20466;-76
2022/04/08 04:29:47;;;;;;;2.97;1.00;;;10.70;99.90;;;;;;7388966;19;20918;-79
2022/04/08 04:32:13;;;;;;;4.33;1.13;;;10.70;99.90;;;;;;7391329;19;20261;-79
2022/04/08 04:34:39;;;;;;;3.53;1.40;;;10.60;99.90;;;;;;7400922;19;20131;-80
2022/04/08 04:37:05;;;;;;;4.00;1.00;;;10.90;99.90;;;;;;7397039;19;20134;-79
2022/04/08 04:39:31;;;;;;;4.03;0.90;;;10.60;99.90;;;;;;7390278;19;20151;-80
2022/04/08 04:41:58;;;;;;;2.57;1.03;;;10.40;99.90;;;;;;7393311;19;20130;-79
2022/04/08 04:44:26;;;;;;;2.07;0.83;;;10.60;99.90;;;;;;7391971;19;20159;-77
2022/04/08 04:46:53;;;;;;;3.80;1.00;;;10.80;99.90;;;;;;7389831;19;20543;-79
2022/04/08 04:49:19;;;;;;;2.27;0.70;;;10.90;99.90;;;;;;7390916;19;20149;-77
2022/04/08 04:51:45;;;;;;;2.57;1.00;;;10.80;99.90;;;;;;7391835;19;20130;-80
2022/04/08 04:54:12;;;;;;;3.80;1.00;;;10.60;99.90;;;;;;7393925;19;20141;-79
2022/04/08 04:56:38;;;;;;;4.53;1.10;;;10.70;99.90;;;;;;7393400;19;20566;-77
2022/04/08 04:59:03;;;;;;;2.93;1.00;;;10.70;99.90;;;;;;7395933;19;20161;-79
2022/04/08 05:01:29;;;;;;;2.67;0.90;;;10.80;99.90;;;;;;7393901;19;20157;-79
2022/04/08 05:03:55;;;;;;;2.87;1.00;;;10.90;99.90;;;;;;7391078;19;20138;-81
2022/04/08 05:06:21;;;;;;;1.90;0.70;;;10.90;99.90;;;;;;7390873;19;20146;-77
2022/04/08 05:08:47;;;;;;;2.33;1.30;;;11.00;99.90;;;;;;7390278;19;20538;-76
2022/04/08 05:11:12;;;;;;;3.87;1.30;;;11.00;99.90;;;;;;7392472;19;20127;-78
2022/04/08 05:13:39;;;;;;;4.20;1.03;;;11.00;99.90;;;;;;7392078;19;20135;-77
2022/04/08 05:16:05;;;;;;;2.67;1.40;;;11.00;99.90;;;;;;7391302;19;20154;-77
2022/04/08 05:18:30;;;;;;;2.07;1.00;;;11.10;99.90;;;;;;7392051;19;20154;-74
2022/04/08 05:20:56;;;;;;;4.23;0.90;;;11.10;99.90;;;;;;7398757;19;20139;-77
2022/04/08 05:23:25;;;;;;;2.20;1.10;;;11.00;99.90;;;;;;7390186;19;20566;-78
2022/04/08 05:25:51;;;;;;;4.13;0.90;;;11.10;99.90;;;;;;7389144;19;20704;-77
2022/04/08 05:28:17;;;;;;;2.60;0.80;;;11.20;99.90;;;;;;7388645;19;20145;-81
2022/04/08 05:30:43;;;;;;;5.43;0.97;;;11.20;99.90;;;;;;7392025;19;20503;-78
2022/04/08 05:33:09;;;;;;;2.50;0.67;;;11.20;99.90;;;;;;7390976;19;20135;-75
2022/04/08 05:35:34;;;;;;;1.77;0.80;;;11.20;99.90;;;;;;7392347;19;20777;-80
2022/04/08 05:38:00;;;;;;;1.73;0.90;;;11.00;99.90;;;;;;7393634;19;20122;-80
2022/04/08 05:40:26;;;;;;;2.20;0.80;;;11.00;99.90;;;;;;7391623;19;20158;-78
2022/04/08 05:42:52;;;;;;;3.33;0.93;;;11.10;99.90;;;;;;7396041;19;20146;-77
2022/04/08 05:45:21;;;;;;;6.33;1.53;;;11.10;99.90;;;;;;7393799;19;20142;-77
2022/04/08 05:47:49;;;;;;;2.20;1.03;;;11.20;99.90;;;;;;7386290;19;20202;-76
2022/04/08 05:50:15;;;;;;;1.33;0.87;;;11.10;99.90;;;;;;7386846;19;20836;-78
2022/04/08 05:52:43;;;;;;;4.30;0.90;;;11.20;99.90;;;;;;7390181;19;20255;-76
2022/04/08 05:55:09;;;;;;;4.03;1.30;;;11.20;99.90;;;;;;7392003;19;20138;-80
2022/04/08 05:57:42;;;;;;;4.07;1.90;;;11.20;99.90;;;;;;7385911;19;20138;-80
2022/04/08 06:00:11;;;;;;;4.57;2.20;;;11.20;99.90;;;;;;7386521;19;20613;-79
2022/04/08 06:02:43;;;;;;;5.17;1.50;;;10.90;99.90;;;;;;7387953;19;20139;-80
2022/04/08 06:05:10;;;;;;;2.37;1.00;;;10.90;99.90;;;;;;7389613;19;20137;-78
2022/04/08 06:07:43;;;;;;;4.57;1.20;;;11.00;99.90;;;;;;7388338;19;20671;-79
2022/04/08 06:10:09;;;;;;;4.83;1.67;;;11.10;99.90;;;;;;7387594;19;20574;-76
2022/04/08 06:12:35;;;;;;;4.43;1.20;;;11.20;99.90;;;;;;7386873;19;20198;-77
2022/04/08 06:15:00;;;;;;;4.47;1.17;;;10.90;99.90;;;;;;7387289;19;20131;-76
2022/04/08 06:17:35;;;;;;;3.63;0.90;;;10.80;99.90;;;;;;7387477;19;20752;-79
2022/04/08 06:20:01;;;;;;;3.60;0.80;;;10.90;99.90;;;;;;7390438;19;20150;-78
2022/04/08 06:22:27;;;;;;;2.03;0.80;;;11.00;99.90;;;;;;7387641;19;20170;-78
2022/04/08 06:24:53;;;;;;;1.10;0.80;;;11.00;99.90;;;;;;7390188;19;20135;-79
2022/04/08 06:27:18;;;;;;;2.50;0.80;;;11.00;99.90;;;;;;7395395;19;20764;-78
2022/04/08 06:29:44;;;;;;;3.77;1.07;;;10.70;99.90;;;;;;7385451;19;20649;-76
2022/04/08 06:32:10;;;;;;;3.23;0.93;;;10.70;99.90;;;;;;7386184;19;20523;-76
2022/04/08 06:34:36;;;;;;;3.73;1.10;;;10.60;99.90;;;;;;7388992;19;20131;-76
2022/04/08 06:37:01;;;;;;;1.60;0.80;;;10.70;99.90;;;;;;7388974;19;20130;-77
2022/04/08 06:39:27;;;;;;;2.47;1.23;;;10.80;99.90;;;;;;7392183;19;20157;-77
2022/04/08 06:41:53;;;;;;;3.33;1.20;;;10.70;99.90;;;;;;7396205;19;20131;-76
2022/04/08 06:44:20;;;;;;;6.50;1.47;;;10.60;99.90;;;;;;7394413;19;20161;-80
2022/04/08 06:46:46;;;;;;;2.17;1.03;;;10.80;99.90;;;;;;7409485;19;20122;-78
2022/04/08 06:49:12;;;;;;;4.40;1.20;;;10.60;99.90;;;;;;7399058;19;20597;-76
2022/04/08 06:51:37;;;;;;;3.23;1.13;;;10.80;99.90;;;;;;7399758;19;20838;-79
2022/04/08 06:54:03;;;;;;;5.77;1.13;;;10.80;99.90;;;;;;7396863;19;20150;-79
2022/04/08 06:56:29;;;;;;;3.13;1.10;;;10.50;99.90;;;;;;7399971;19;20123;-79
2022/04/08 06:58:55;;;;;;;3.93;1.10;;;10.20;99.90;;;;;;7398110;19;20147;-81
2022/04/08 07:01:21;;;;;;;4.63;1.40;;;10.60;99.90;;;;;;7394335;19;20126;-78
2022/04/08 07:03:48;;;;;;;6.50;1.50;;;10.40;99.90;;;;;;7393933;19;20202;-79
2022/04/08 07:06:14;;;;;;;6.20;0.93;;;10.40;99.90;;;;;;7395211;19;20178;-79
2022/04/08 07:08:41;;;;;;;3.80;1.13;;;10.40;99.90;;;;;;7407683;19;20209;-79
2022/04/08 07:11:07;;;;;;;5.70;1.40;;;10.60;99.90;;;;;;7397658;19;20505;-77
2022/04/08 07:13:33;;;;;;;4.60;1.43;;;10.70;99.90;;;;;;7393883;19;20123;-77
2022/04/08 07:16:00;;;;;;;2.63;1.20;;;10.50;99.90;;;;;;7392917;19;20171;-79
2022/04/08 07:18:27;;;;;;;5.67;1.60;;;10.40;99.90;;;;;;7396203;19;20576;-77
2022/04/08 07:20:53;;;;;;;5.13;1.33;;;10.40;99.90;;;;;;7393464;19;20134;-79
2022/04/08 07:23:19;;;;;;;2.00;0.97;;;10.40;99.90;;;;;;7394222;19;20146;-81
2022/04/08 07:25:45;;;;;;;4.87;1.27;;;10.40;99.90;;;;;;7395160;19;20879;-80
2022/04/08 07:28:10;;;;;;;11.00;3.77;;;10.60;99.90;;;;;;7392505;19;20174;-77
2022/04/08 07:30:36;;;;;;;8.37;1.97;;;10.60;99.90;;;;;;7397559;19;20162;-80
2022/04/08 07:33:03;;;;;;;6.83;1.50;;;10.60;99.90;;;;;;7398205;19;20606;-79
2022/04/08 07:35:30;;;;;;;2.57;1.43;;;10.40;99.90;;;;;;7394972;19;20143;-77
2022/04/08 07:37:57;;;;;;;3.70;0.93;;;10.30;99.90;;;;;;7392012;19;20176;-79
2022/04/08 07:40:23;;;;;;;7.17;1.23;;;10.30;99.90;;;;;;7392165;19;20206;-78
2022/04/08 07:42:49;;;;;;;2.90;1.17;;;10.60;99.90;;;;;;7393411;19;20594;-78
2022/04/08 07:45:17;;;;;;;8.77;1.40;;;10.30;99.90;;;;;;7394390;19;20319;-78
2022/04/08 07:47:44;;;;;;;6.60;1.23;;;10.40;99.90;;;;;;7392379;19;20131;-80
2022/04/08 07:50:14;;;;;;;4.77;2.20;;;10.50;99.90;;;;;;7394190;19;20142;-80
2022/04/08 07:52:40;;;;;;;4.97;1.70;;;10.40;99.90;;;;;;7402698;19;20137;-77
2022/04/08 07:55:08;;;;;;;4.80;1.40;;;10.40;99.90;;;;;;7406669;19;20719;-76
2022/04/08 07:57:43;;;;;;;4.33;1.30;;;10.50;99.90;;;;;;7392456;19;20150;-80
2022/04/08 08:00:14;;;;;;;6.33;1.27;;;10.60;99.90;;;;;;7393834;19;20586;-77
2022/04/08 08:02:41;;;;;;;5.73;1.20;;;10.70;99.90;;;;;;7394013;19;20115;-76
2022/04/08 08:05:09;;;;;;;2.80;1.00;;;10.70;99.90;;;;;;7394629;19;20194;-76
2022/04/08 08:07:50;;;;;;;2.93;1.40;;;10.70;99.90;;;;;;7390098;19;20130;-77
2022/04/08 08:10:21;;;;;;;6.37;2.67;;;10.80;99.90;;;;;;7392024;19;20133;-80
2022/04/08 08:12:48;;;;;;;4.80;2.03;;;10.90;99.90;;;;;;7393029;19;20593;-78
2022/04/08 08:15:16;;;;;;;2.10;1.20;;;10.90;99.90;;;;;;7395496;19;20519;-80
2022/04/08 08:17:42;;;;;;;6.93;1.90;;;10.90;99.90;;;;;;7404170;19;20131;-79
2022/04/08 08:20:09;;;;;;;4.70;1.67;;;10.70;99.90;;;;;;7393498;19;20134;-76
2022/04/08 08:22:36;;;;;;;3.93;1.20;;;10.90;99.90;;;;;;7392899;19;20127;-75
2022/04/08 08:25:03;;;;;;;3.30;1.77;;;11.00;99.90;;;;;;7391437;19;20138;-77
2022/04/08 08:27:37;;;;;;;6.23;2.30;;;10.90;99.90;;;;;;7389232;19;20170;-77
2022/04/08 08:30:04;;;;;;;4.63;2.10;;;10.80;99.90;;;;;;7391231;19;20130;-75
2022/04/08 08:32:29;;;;;;;4.43;1.20;;;10.80;99.90;;;;;;7390612;19;20134;-79
2022/04/08 08:34:55;;;;;;;5.50;3.30;;;10.80;99.90;;;;;;7390572;19;20143;-76
2022/04/08 08:37:22;;;;;;;3.17;0.90;;;10.80;99.90;;;;;;7400050;19;20644;-80
2022/04/08 08:39:47;;;;;;;1.37;0.70;;;10.90;99.90;;;;;;7389810;19;20151;-79
2022/04/08 08:42:13;;;;;;;0.93;0.70;;;10.70;99.90;;;;;;7391388;19;20594;-78
2022/04/08 08:44:39;;;;;;;0.77;0.57;;;10.70;99.90;;;;;;7389964;19;20732;-79
2022/04/08 08:47:11;;;;;;;2.40;1.30;;;10.70;99.90;;;;;;7389221;19;20222;-79
2022/04/08 08:49:38;;;;;;;2.87;1.43;;;10.70;99.90;;;;;;7391840;19;20238;-79
2022/04/08 08:52:07;;;;;;;7.10;4.30;;;10.70;99.90;;;;;;7390809;19;20852;-76
2022/04/08 08:54:33;;;;;;;3.00;1.43;;;10.70;99.90;;;;;;7393303;19;20137;-79
2022/04/08 08:57:02;;;;;;;2.87;1.50;;;10.80;99.90;;;;;;7389590;19;20214;-78
2022/04/08 08:59:29;;;;;;;2.30;1.40;;;10.70;99.90;;;;;;7400559;19;20133;-79
2022/04/08 09:02:02;;;;;;;3.40;1.40;;;10.80;99.90;;;;;;7397935;19;20616;-79
2022/04/08 09:04:29;;;;;;;2.80;1.37;;;10.90;99.90;;;;;;7390818;19;20146;-76
2022/04/08 09:06:55;;;;;;;1.40;0.90;;;10.80;99.90;;;;;;7391763;19;20131;-79
2022/04/08 09:09:31;;;;;;;1.13;0.70;;;10.80;99.90;;;;;;7391329;19;20605;-76
2022/04/08 09:12:12;;;;;;;1.40;1.00;;;10.90;99.90;;;;;;7389437;19;20545;-76
2022/04/08 09:14:37;;;;;;;2.30;0.60;;;10.70;99.90;;;;;;7389590;19;20138;-79
2022/04/08 09:17:04;;;;;;;1.30;0.40;;;10.90;99.90;;;;;;7389885;19;20493;-76
2022/04/08 09:19:33;;;;;;;1.23;0.70;;;10.70;99.90;;;;;;7391463;19;20275;-77
2022/04/08 09:21:59;;;;;;;2.33;0.60;;;10.80;99.90;;;;;;7400154;19;20215;-78
2022/04/08 09:24:26;;;;;;;2.00;0.80;;;10.80;99.90;;;;;;7389740;19;20152;-81
2022/04/08 09:26:53;;;;;;;0.90;0.77;;;10.90;99.90;;;;;;7389339;19;20154;-77
2022/04/08 09:29:20;;;;;;;1.53;1.20;;;10.90;99.90;;;;;;7387674;19;20154;-80
2022/04/08 09:31:54;;;;;;;0.80;0.80;;;10.90;99.90;;;;;;7389458;19;20143;-77
2022/04/08 09:34:20;;;;;;;2.17;1.00;;;10.90;99.90;;;;;;7389514;19;20133;-81
2022/04/08 09:36:47;;;;;;;2.00;1.20;;;11.00;99.90;;;;;;7390234;19;20138;-81
2022/04/08 09:39:13;;;;;;;3.47;0.80;;;10.80;99.90;;;;;;7395956;19;20173;-78
2022/04/08 09:41:44;;;;;;;1.53;0.60;;;10.80;99.90;;;;;;7400654;19;20134;-78
2022/04/08 09:44:11;;;;;;;0.43;0.40;;;10.50;99.90;;;;;;7394771;19;20138;-80
2022/04/08 09:46:38;;;;;;;1.23;0.63;;;10.50;99.90;;;;;;7389553;19;20439;-78
2022/04/08 09:49:05;;;;;;;3.17;0.80;;;10.60;99.90;;;;;;7390209;19;20123;-82
2022/04/08 09:51:36;;;;;;;5.50;1.00;;;10.60;99.90;;;;;;7390159;19;20139;-81
2022/04/08 09:54:05;;;;;;;3.23;0.83;;;10.60;99.90;;;;;;7392244;19;20465;-78
2022/04/08 09:56:31;;;;;;;0.83;0.53;;;10.50;99.90;;;;;;7393957;19;20138;-81
2022/04/08 09:59:05;;;;;;;0.73;0.40;;;10.50;99.90;;;;;;7389546;19;20260;-82
2022/04/08 10:01:31;;;;;;;1.17;0.50;;;10.50;99.90;;;;;;7389504;19;20134;-79
2022/04/08 10:03:58;;;;;;;1.50;0.80;;;10.50;99.90;;;;;;7390979;19;20138;-81
2022/04/08 10:06:24;;;;;;;1.03;0.50;;;10.40;99.90;;;;;;7395929;19;20135;-81
2022/04/08 10:08:52;;;;;;;1.07;0.50;;;10.40;99.90;;;;;;7402027;19;20161;-81
2022/04/08 10:11:54;;;;;;;1.90;1.60;;;10.40;99.90;;;;;;7388851;19;20507;-81
2022/04/08 10:14:39;;;;;;;0.50;0.50;;;10.40;99.90;;;;;;7395180;19;20137;-77
2022/04/08 10:17:05;;;;;;;0.70;0.50;;;10.40;99.90;;;;;;7390367;19;20134;-82
2022/04/08 10:19:33;;;;;;;0.40;0.40;;;10.30;99.90;;;;;;7391667;19;20135;-79
2022/04/08 10:22:00;;;;;;;1.97;0.50;;;10.20;99.90;;;;;;7389947;19;20139;-82
2022/04/08 10:24:31;;;;;;;1.23;0.43;;;10.20;99.90;;;;;;7390169;19;20166;-82
2022/04/08 10:27:04;;;;;;;1.53;0.53;;;10.20;99.90;;;;;;7396998;19;20217;-77
2022/04/08 10:29:32;;;;;;;1.33;0.50;;;10.20;99.90;;;;;;7390159;19;20167;-79
2022/04/08 10:32:05;;;;;;;0.47;0.47;;;10.20;99.90;;;;;;7392224;19;20134;-80
2022/04/08 10:34:32;;;;;;;1.20;0.60;;;10.30;99.90;;;;;;7389542;19;20708;-83
2022/04/08 10:37:00;;;;;;;0.60;0.50;;;10.30;99.90;;;;;;7389875;19;20145;-80
2022/04/08 10:39:26;;;;;;;0.40;0.40;;;10.30;99.90;;;;;;7390758;19;20149;-81
2022/04/08 10:41:57;;;;;;;0.87;0.63;;;10.20;99.90;;;;;;7389007;19;20146;-82
2022/04/08 10:44:41;;;;;;;0.40;0.40;;;10.20;99.90;;;;;;7391410;19;20135;-83
2022/04/08 10:47:18;;;;;;;0.37;0.37;;;10.20;99.90;;;;;;7393198;19;20131;-79
2022/04/08 10:49:50;;;;;;;0.47;0.43;;;10.10;99.90;;;;;;7412280;19;20178;-80
2022/04/08 10:52:18;;;;;;;0.30;0.30;;;10.20;99.90;;;;;;7392219;19;20127;-82
2022/04/08 10:54:45;;;;;;;0.77;0.50;;;10.30;99.90;;;;;;7393311;19;20479;-84
2022/04/08 10:57:11;;;;;;;0.60;0.40;;;10.40;99.90;;;;;;7389364;19;20131;-78
2022/04/08 10:59:37;;;;;;;0.87;0.40;;;10.50;99.90;;;;;;7389208;19;20981;-79
2022/04/08 11:02:06;;;;;;;0.60;0.60;;;10.40;99.90;;;;;;7389869;19;20238;-79
2022/04/08 11:04:32;;;;;;;1.10;0.50;;;10.40;99.90;;;;;;7390940;19;20461;-80
2022/04/08 11:07:06;;;;;;;1.03;0.50;;;10.30;99.90;;;;;;7388556;19;20226;-80
2022/04/08 11:09:34;;;;;;;0.40;0.33;;;10.30;99.90;;;;;;7389173;19;20126;-81
2022/04/08 11:12:01;;;;;;;7.47;3.50;;;10.30;99.90;;;;;;7389613;19;20139;-79
2022/04/08 11:14:31;;;;;;;1.20;1.00;;;10.20;99.90;;;;;;7409490;19;20168;-81
2022/04/08 11:16:57;;;;;;;1.60;0.50;;;10.30;99.90;;;;;;7395467;19;20130;-82
2022/04/08 11:19:23;;;;;;;0.57;0.40;;;10.10;99.90;;;;;;7388953;19;20147;-79
2022/04/08 11:21:51;;;;;;;0.63;0.50;;;10.10;99.90;;;;;;7390511;19;20134;-79
2022/04/08 11:24:18;;;;;;;0.93;0.50;;;10.10;99.90;;;;;;7392451;19;21023;-79
2022/04/08 11:26:44;;;;;;;1.40;0.60;;;10.20;99.90;;;;;;7397417;19;20220;-83
2022/04/08 11:29:15;;;;;;;0.77;0.40;;;10.20;99.90;;;;;;7393331;19;20130;-80
2022/04/08 11:31:50;;;;;;;0.97;0.60;;;10.20;99.90;;;;;;7395549;19;20135;-80
2022/04/08 11:34:16;;;;;;;0.50;0.50;;;10.10;99.90;;;;;;7396646;19;20134;-82
2022/04/08 11:36:43;;;;;;;0.40;0.40;;;10.00;99.90;;;;;;7408406;19;20133;-77
2022/04/08 11:39:18;;;;;;;1.60;0.53;;;10.10;99.90;;;;;;7395468;19;20170;-81
2022/04/08 11:41:53;;;;;;;0.90;0.60;;;10.00;99.90;;;;;;7395223;19;20221;-83
2022/04/08 11:44:20;;;;;;;2.07;0.60;;;10.00;99.90;;;;;;7396881;19;20138;-79
2022/04/08 11:46:46;;;;;;;1.20;0.70;;;10.10;99.90;;;;;;7395740;19;20149;-83
2022/04/08 11:49:13;;;;;;;0.80;0.50;;;10.10;99.90;;;;;;7392964;19;20147;-83
2022/04/08 11:51:39;;;;;;;2.23;0.60;;;10.10;99.90;;;;;;7395859;19;20199;-79
2022/04/08 11:54:05;;;;;;;1.13;0.60;;;10.10;99.90;;;;;;7405902;19;20134;-78
2022/04/08 11:56:31;;;;;;;0.90;0.60;;;10.20;99.90;;;;;;7410818;19;20487;-76
2022/04/08 11:59:05;;;;;;;1.00;0.67;;;9.90;99.90;;;;;;7398259;19;20131;-79
2022/04/08 12:01:39;;;;;;;1.00;0.80;;;10.00;99.90;;;;;;7395150;19;20134;-78
2022/04/08 12:04:10;;;;;;;1.03;0.63;;;10.10;99.90;;;;;;7397638;19;20143;-85
2022/04/08 12:06:41;;;;;;;1.10;0.77;;;10.10;99.90;;;;;;7395125;19;20505;-82
2022/04/08 12:09:09;;;;;;;2.33;1.50;;;10.10;99.90;;;;;;7395350;19;20138;-83
2022/04/08 12:11:36;;;;;;;2.63;1.30;;;10.00;99.90;;;;;;7395228;19;20134;-82
2022/04/08 12:14:05;;;;;;;2.23;1.10;;;9.80;99.90;;;;;;7394611;19;20165;-83
2022/04/08 12:16:32;;;;;;;3.13;0.93;;;9.80;99.90;;;;;;7394227;19;20147;-83
2022/04/08 12:18:58;;;;;;;1.20;0.87;;;9.80;99.90;;;;;;7400215;19;20831;-80
2022/04/08 12:21:26;;;;;;;2.37;1.73;;;9.90;99.90;;;;;;7407034;19;20178;-77
2022/04/08 12:23:55;;;;;;;2.10;1.30;;;9.90;99.90;;;;;;7396568;19;20195;-79
2022/04/08 12:26:28;;;;;;;3.27;1.30;;;9.90;99.90;;;;;;7394253;19;20145;-79
2022/04/08 12:29:15;;;;;;;0.70;0.70;;;9.80;99.90;;;;;;7392375;19;20146;-79
2022/04/08 12:31:48;;;;;;;2.73;0.70;;;9.70;99.90;;;;;;7394483;19;20149;-80
2022/04/08 12:34:17;;;;;;;0.90;0.60;;;9.50;99.90;;;;;;7395074;19;20611;-78
2022/04/08 12:36:45;;;;;;;1.33;0.80;;;9.40;99.90;;;;;;7393355;19;20134;-83
2022/04/08 12:39:11;;;;;;;1.13;0.70;;;9.50;99.90;;;;;;7392821;19;20167;-79
2022/04/08 12:41:41;;;;;;;3.00;0.80;;;9.70;99.90;;;;;;7404051;19;20160;-80
2022/04/08 12:44:08;;;;;;;0.97;0.80;;;9.50;99.90;;;;;;7396528;19;20126;-80
2022/04/08 12:46:35;;;;;;;0.70;0.63;;;9.50;99.90;;;;;;7395055;19;20561;-79
2022/04/08 12:49:01;;;;;;;1.47;0.73;;;9.30;99.90;;;;;;7391515;19;20160;-83